createdAt,value
2024-01-11T00:02:24.571Z,100.00
2024-01-11T00:04:52.910Z,100.00
2024-01-11T00:07:20.970Z,99.76
2024-01-11T00:09:48.946Z,100.00
2024-01-11T00:12:17.319Z,100.00
2024-01-11T00:14:45.570Z,95.91
2024-01-11T00:17:13.666Z,95.04
2024-01-11T00:19:42.048Z,97.30
2024-01-11T00:22:09.982Z,96.05
2024-01-11T00:24:39.683Z,98.78
2024-01-11T00:27:08.441Z,98.32
2024-01-11T00:29:37.749Z,98.94
2024-01-11T00:32:06.117Z,99.50
2024-01-11T00:34:34.747Z,100.00
2024-01-11T00:37:03.042Z,96.65
2024-01-11T00:39:31.984Z,99.56
2024-01-11T00:42:00.497Z,98.22
2024-01-11T00:44:28.467Z,99.30
2024-01-11T00:46:57.065Z,96.58
2024-01-11T00:49:25.539Z,99.04
2024-01-11T00:51:53.432Z,97.96
2024-01-11T00:54:21.674Z,95.28
2024-01-11T00:56:50.030Z,96.12
2024-01-11T00:59:18.149Z,95.71
2024-01-11T01:01:50.172Z,97.08
2024-01-11T01:04:21.408Z,98.60
2024-01-11T01:06:49.438Z,100.00
2024-01-11T01:09:17.429Z,96.83
2024-01-11T01:11:45.763Z,98.69
2024-01-11T01:14:13.977Z,97.46
2024-01-11T01:16:42.064Z,97.49
2024-01-11T01:19:13.760Z,96.06
2024-01-11T01:21:42.118Z,97.42
2024-01-11T01:24:11.107Z,95.28
2024-01-11T01:26:39.194Z,97.81
2024-01-11T01:29:07.131Z,99.32
2024-01-11T01:31:39.166Z,98.08
2024-01-11T01:34:09.125Z,95.79
2024-01-11T01:36:37.646Z,96.93
2024-01-11T01:39:05.616Z,95.03
2024-01-11T01:41:33.649Z,94.85
2024-01-11T01:44:02.134Z,97.39
2024-01-11T01:46:30.650Z,98.79
2024-01-11T01:49:00.426Z,98.74
2024-01-11T01:51:32.412Z,97.65
2024-01-11T01:54:01.847Z,97.59
2024-01-11T01:56:33.844Z,96.47
2024-01-11T01:59:02.888Z,97.08
2024-01-11T02:01:31.872Z,96.70
2024-01-11T02:04:00.543Z,96.65
2024-01-11T02:06:31.697Z,97.69
2024-01-11T02:09:00.721Z,95.36
2024-01-11T02:11:29.717Z,95.48
2024-01-11T02:13:59.005Z,95.45
2024-01-11T02:16:27.131Z,95.58
2024-01-11T02:18:55.882Z,95.16
2024-01-11T02:21:25.588Z,95.63
2024-01-11T02:24:05.759Z,96.33
2024-01-11T02:26:37.642Z,96.30
2024-01-11T02:29:08.644Z,96.24
2024-01-11T02:31:38.159Z,97.72
2024-01-11T02:34:06.318Z,96.97
2024-01-11T02:36:34.395Z,95.73
2024-01-11T02:39:06.442Z,95.84
2024-01-11T02:41:34.694Z,95.87
2024-01-11T02:44:03.682Z,97.79
2024-01-11T02:46:32.195Z,96.07
2024-01-11T02:49:03.494Z,97.44
2024-01-11T02:51:31.929Z,96.03
2024-01-11T02:53:59.944Z,96.49
2024-01-11T02:56:27.959Z,96.50
2024-01-11T02:58:56.393Z,96.20
2024-01-11T03:01:24.491Z,96.62
2024-01-11T03:03:52.959Z,96.84
2024-01-11T03:06:23.283Z,96.42
2024-01-11T03:08:54.183Z,96.66
2024-01-11T03:11:22.493Z,96.63
2024-01-11T03:13:50.329Z,96.57
2024-01-11T03:16:18.360Z,97.21
2024-01-11T03:18:46.816Z,96.69
2024-01-11T03:21:14.865Z,98.61
2024-01-11T03:23:42.907Z,97.27
2024-01-11T03:26:16.200Z,97.79
2024-01-11T03:28:44.121Z,98.34
2024-01-11T03:31:15.621Z,97.88
2024-01-11T03:33:43.604Z,97.75
2024-01-11T03:36:12.937Z,97.85
2024-01-11T03:38:41.600Z,98.20
2024-01-11T03:41:13.471Z,98.43
2024-01-11T03:43:41.975Z,98.25
2024-01-11T03:46:09.888Z,98.29
2024-01-11T03:48:38.555Z,98.06
2024-01-11T03:51:08.076Z,98.08
2024-01-11T03:53:39.366Z,98.68
2024-01-11T03:56:08.097Z,98.32
2024-01-11T03:58:40.750Z,99.02
2024-01-11T04:01:11.906Z,98.80
2024-01-11T04:03:40.563Z,99.22
2024-01-11T04:06:08.802Z,99.32
2024-01-11T04:08:37.705Z,99.18
2024-01-11T04:11:06.205Z,99.54
2024-01-11T04:13:34.128Z,99.73
2024-01-11T04:16:07.254Z,100.00
2024-01-11T04:18:35.910Z,100.00
2024-01-11T04:21:04.080Z,100.00
2024-01-11T04:23:32.276Z,100.00
2024-01-11T04:26:00.704Z,100.00
2024-01-11T04:28:28.560Z,100.00
2024-01-11T04:30:56.632Z,100.00
2024-01-11T04:33:25.182Z,100.00
2024-01-11T04:35:53.126Z,100.00
2024-01-11T04:38:24.576Z,100.00
2024-01-11T04:40:52.932Z,100.00
2024-01-11T04:43:20.847Z,100.00
2024-01-11T04:45:48.910Z,100.00
2024-01-11T04:48:17.390Z,100.00
2024-01-11T04:50:46.485Z,100.00
2024-01-11T04:53:17.670Z,100.00
2024-01-11T04:55:46.082Z,100.00
2024-01-11T04:58:14.191Z,100.00
2024-01-11T05:00:42.164Z,100.00
2024-01-11T05:03:13.277Z,100.00
2024-01-11T05:05:41.280Z,100.00
2024-01-11T05:08:09.260Z,100.00
2024-01-11T05:10:37.900Z,100.00
2024-01-11T05:13:05.865Z,100.00
2024-01-11T05:15:34.545Z,100.00
2024-01-11T05:18:03.030Z,100.00
2024-01-11T05:20:31.202Z,100.00
2024-01-11T05:22:59.248Z,100.00
2024-01-11T05:25:27.960Z,100.00
2024-01-11T05:27:55.915Z,100.00
2024-01-11T05:30:24.876Z,100.00
2024-01-11T05:32:54.045Z,100.00
2024-01-11T05:35:23.370Z,100.00
2024-01-11T05:37:52.282Z,100.00
2024-01-11T05:40:20.710Z,100.00
2024-01-11T05:42:49.326Z,100.00
2024-01-11T05:45:20.870Z,100.00
2024-01-11T05:47:53.574Z,100.00
2024-01-11T05:50:21.602Z,100.00
2024-01-11T05:52:50.159Z,100.00
2024-01-11T05:55:18.624Z,100.00
2024-01-11T05:57:47.189Z,100.00
2024-01-11T06:00:15.873Z,100.00
2024-01-11T06:02:44.431Z,100.00
2024-01-11T06:05:14.031Z,100.00
2024-01-11T06:07:42.514Z,100.00
2024-01-11T06:10:11.659Z,100.00
2024-01-11T06:12:39.649Z,100.00
2024-01-11T06:15:08.445Z,100.00
2024-01-11T06:17:37.655Z,100.00
2024-01-11T06:20:06.762Z,100.00
2024-01-11T06:22:34.778Z,100.00
2024-01-11T06:25:03.191Z,100.00
2024-01-11T06:27:34.786Z,100.00
2024-01-11T06:30:03.297Z,100.00
2024-01-11T06:32:33.897Z,100.00
2024-01-11T06:35:03.675Z,100.00
2024-01-11T06:37:32.242Z,100.00
2024-01-11T06:40:00.306Z,100.00
2024-01-11T06:42:28.814Z,100.00
2024-01-11T06:44:56.776Z,100.00
2024-01-11T06:47:25.070Z,100.00
2024-01-11T06:49:53.485Z,100.00
2024-01-11T06:52:21.531Z,100.00
2024-01-11T06:54:49.543Z,100.00
2024-01-11T06:57:17.922Z,100.00
2024-01-11T06:59:49.081Z,100.00
2024-01-11T07:02:17.613Z,100.00
2024-01-11T07:04:46.655Z,100.00
2024-01-11T07:07:14.736Z,100.00
2024-01-11T07:09:42.937Z,100.00
2024-01-11T07:12:10.945Z,100.00
2024-01-11T07:14:39.008Z,100.00
2024-01-11T07:17:07.491Z,100.00
2024-01-11T07:19:35.554Z,100.00
2024-01-11T07:22:03.644Z,100.00
2024-01-11T07:24:39.077Z,100.00
2024-01-11T07:27:08.248Z,100.00
2024-01-11T07:29:36.716Z,100.00
2024-01-11T07:32:05.600Z,100.00
2024-01-11T07:34:34.495Z,100.00
2024-01-11T07:37:03.106Z,100.00
2024-01-11T07:39:32.391Z,100.00
2024-01-11T07:42:00.321Z,100.00
2024-01-11T07:44:28.742Z,100.00
2024-01-11T07:47:17.700Z,100.00
2024-01-11T07:49:46.224Z,100.00
2024-01-11T07:52:14.213Z,100.00
2024-01-11T07:54:42.204Z,100.00
2024-01-11T07:57:10.729Z,100.00
2024-01-11T07:59:39.492Z,100.00
2024-01-11T08:02:08.858Z,100.00
2024-01-11T08:04:40.318Z,100.00
2024-01-11T08:07:08.400Z,100.00
2024-01-11T08:09:36.561Z,100.00
2024-01-11T08:12:05.220Z,100.00
2024-01-11T08:14:33.299Z,100.00
2024-01-11T08:17:03.115Z,100.00
2024-01-11T08:19:31.841Z,100.00
2024-01-11T08:22:03.760Z,100.00
2024-01-11T08:24:32.224Z,100.00
2024-01-11T08:27:03.480Z,100.00
2024-01-11T08:29:31.533Z,100.00
2024-01-11T08:32:00.580Z,100.00
2024-01-11T08:34:29.876Z,100.00
2024-01-11T08:36:57.923Z,100.00
2024-01-11T08:39:26.540Z,100.00
2024-01-11T08:41:54.656Z,100.00
2024-01-11T08:44:22.667Z,100.00
2024-01-11T08:46:51.100Z,100.00
2024-01-11T08:49:19.077Z,100.00
2024-01-11T08:51:49.943Z,100.00
2024-01-11T08:54:18.833Z,100.00
2024-01-11T08:56:46.805Z,100.00
2024-01-11T08:59:14.774Z,100.00
2024-01-11T09:01:53.567Z,100.00
2024-01-11T09:04:38.410Z,100.00
2024-01-11T09:07:06.804Z,100.00
2024-01-11T09:09:41.372Z,100.00
2024-01-11T09:12:15.902Z,100.00
2024-01-11T09:14:43.993Z,100.00
2024-01-11T09:17:12.632Z,100.00
2024-01-11T09:19:41.535Z,100.00
2024-01-11T09:22:12.361Z,100.00
2024-01-11T09:24:41.292Z,100.00
2024-01-11T09:27:09.864Z,100.00
2024-01-11T09:29:37.896Z,100.00
2024-01-11T09:32:07.057Z,100.00
2024-01-11T09:34:35.087Z,100.00
2024-01-11T09:37:06.611Z,100.00
2024-01-11T09:39:34.894Z,100.00
2024-01-11T09:42:14.176Z,100.00
2024-01-11T09:44:43.349Z,100.00
2024-01-11T09:47:15.997Z,100.00
2024-01-11T09:49:52.350Z,100.00
2024-01-11T09:52:21.997Z,100.00
2024-01-11T09:54:50.668Z,100.00
2024-01-11T09:57:26.962Z,100.00
2024-01-11T09:59:58.441Z,100.00
2024-01-11T10:02:30.434Z,100.00
2024-01-11T10:04:58.920Z,100.00
2024-01-11T10:07:26.992Z,100.00
2024-01-11T10:09:55.508Z,100.00
2024-01-11T10:12:26.758Z,100.00
2024-01-11T10:14:55.234Z,100.00
2024-01-11T10:17:25.701Z,100.00
2024-01-11T10:19:59.410Z,100.00
2024-01-11T10:22:27.740Z,100.00
2024-01-11T10:25:16.155Z,100.00
2024-01-11T10:27:47.300Z,100.00
2024-01-11T10:30:21.750Z,100.00
2024-01-11T10:32:50.989Z,100.00
2024-01-11T10:35:20.028Z,100.00
2024-01-11T10:37:52.160Z,100.00
2024-01-11T10:40:25.912Z,100.00
2024-01-11T10:42:54.437Z,100.00
2024-01-11T10:45:22.958Z,100.00
2024-01-11T10:48:03.859Z,100.00
2024-01-11T10:50:42.918Z,100.00
2024-01-11T10:53:49.228Z,100.00
2024-01-11T10:56:18.545Z,100.00
2024-01-11T10:58:49.906Z,100.00
2024-01-11T11:01:19.947Z,100.00
2024-01-11T11:03:50.161Z,100.00
2024-01-11T11:06:20.744Z,100.00
2024-01-11T11:08:50.912Z,98.77
2024-01-11T11:11:19.953Z,97.98
2024-01-11T11:13:50.223Z,95.98
2024-01-11T11:16:18.350Z,99.04
2024-01-11T11:18:46.951Z,96.70
2024-01-11T11:21:16.580Z,95.02
2024-01-11T11:23:47.699Z,97.75
2024-01-11T11:26:18.264Z,93.25
2024-01-11T11:28:49.706Z,98.86
2024-01-11T11:31:43.376Z,97.28
2024-01-11T11:34:14.582Z,95.88
2024-01-11T11:36:45.977Z,95.31
2024-01-11T11:39:15.260Z,95.14
2024-01-11T11:44:30.767Z,96.46
2024-01-11T11:47:23.088Z,95.54
2024-01-11T11:50:06.508Z,92.46
2024-01-11T11:52:37.940Z,94.06
2024-01-11T11:55:08.747Z,91.42
2024-01-11T11:57:38.089Z,90.31
2024-01-11T12:00:07.057Z,90.24
2024-01-11T12:02:40.822Z,90.33
2024-01-11T12:05:18.814Z,89.48
2024-01-11T12:07:47.530Z,88.40
2024-01-11T12:10:16.049Z,85.39
2024-01-11T12:12:44.115Z,85.48
2024-01-11T12:15:12.797Z,85.87
2024-01-11T12:17:44.044Z,86.17
2024-01-11T12:20:13.557Z,87.23
2024-01-11T12:22:41.867Z,88.31
2024-01-11T12:25:17.343Z,88.94
2024-01-11T12:27:54.731Z,89.64
2024-01-11T12:30:27.836Z,90.92
2024-01-11T12:32:57.404Z,91.63
2024-01-11T12:35:25.723Z,91.33
2024-01-11T12:37:56.812Z,90.24
2024-01-11T12:43:13.087Z,89.66
2024-01-11T12:45:42.056Z,88.90
2024-01-11T12:48:11.337Z,88.50
2024-01-11T12:50:39.312Z,89.28
2024-01-11T12:53:22.166Z,88.52
2024-01-11T12:56:03.261Z,86.69
2024-01-11T12:58:31.620Z,87.13
2024-01-11T13:00:59.756Z,86.94
2024-01-11T13:03:32.029Z,88.15
2024-01-11T13:06:00.630Z,87.86
2024-01-11T13:08:30.422Z,87.88
2024-01-11T13:10:58.582Z,88.27
2024-01-11T13:13:27.626Z,88.46
2024-01-11T13:15:55.777Z,89.67
2024-01-11T13:21:14.283Z,89.44
2024-01-11T13:23:46.837Z,89.51
2024-01-11T13:26:15.915Z,90.13
2024-01-11T13:28:43.971Z,90.88
2024-01-11T13:31:11.941Z,90.10
2024-01-11T13:33:40.644Z,88.25
2024-01-11T13:36:14.235Z,87.87
2024-01-11T13:38:42.806Z,86.02
2024-01-11T13:41:10.915Z,84.42
2024-01-11T13:43:41.428Z,84.97
2024-01-11T13:46:10.442Z,83.32
2024-01-11T13:48:38.534Z,83.03
2024-01-11T13:51:11.600Z,83.05
2024-01-11T13:53:40.370Z,83.87
2024-01-11T13:56:08.569Z,85.11
2024-01-11T13:58:36.966Z,83.74
2024-01-11T14:01:06.299Z,84.35
2024-01-11T14:03:35.312Z,84.00
2024-01-11T14:06:04.208Z,85.35
2024-01-11T14:08:32.701Z,85.15
2024-01-11T14:11:01.033Z,86.93
2024-01-11T14:13:35.042Z,87.91
2024-01-11T14:16:03.635Z,87.19
2024-01-11T14:18:31.859Z,86.00
2024-01-11T14:21:01.923Z,86.26
2024-01-11T14:23:30.359Z,86.95
2024-01-11T14:25:58.355Z,86.11
2024-01-11T14:28:27.372Z,85.50
2024-01-11T14:30:56.055Z,86.65
2024-01-11T14:33:24.130Z,86.16
2024-01-11T14:35:52.131Z,85.71
2024-01-11T14:38:20.456Z,86.30
2024-01-11T14:40:48.406Z,85.15
2024-01-11T14:43:17.692Z,85.27
2024-01-11T14:45:46.255Z,83.95
2024-01-11T14:48:14.523Z,83.97
2024-01-11T14:50:42.956Z,83.70
2024-01-11T14:53:11.630Z,84.91
2024-01-11T14:55:39.642Z,85.83
2024-01-11T14:58:07.491Z,86.90
2024-01-11T15:00:37.151Z,86.78
2024-01-11T15:03:06.188Z,87.71
2024-01-11T15:05:34.529Z,88.14
2024-01-11T15:08:03.760Z,95.19
2024-01-11T15:10:31.819Z,92.02
2024-01-11T15:13:01.466Z,90.86
2024-01-11T15:15:30.371Z,94.65
2024-01-11T15:17:58.776Z,95.40
2024-01-11T15:20:26.780Z,93.76
2024-01-11T15:22:55.128Z,90.89
2024-01-11T15:25:25.245Z,93.48
2024-01-11T15:27:53.124Z,95.61
2024-01-11T15:30:21.725Z,93.47
2024-01-11T15:32:50.864Z,99.38
2024-01-11T15:35:19.258Z,94.79
2024-01-11T15:37:47.753Z,96.69
2024-01-11T15:40:15.641Z,94.50
2024-01-11T15:42:47.549Z,97.25
2024-01-11T15:45:20.184Z,94.23
2024-01-11T15:47:48.243Z,96.37
2024-01-11T15:50:16.609Z,95.66
2024-01-11T15:52:44.592Z,93.50
2024-01-11T15:55:12.499Z,93.68
2024-01-11T15:57:40.999Z,96.10
2024-01-11T16:00:13.102Z,93.82
2024-01-11T16:02:43.342Z,94.40
2024-01-11T16:05:11.557Z,93.66
2024-01-11T16:07:40.167Z,93.48
2024-01-11T16:10:09.016Z,93.18
2024-01-11T16:12:37.012Z,92.75
2024-01-11T16:15:06.727Z,93.43
2024-01-11T16:17:35.378Z,92.37
2024-01-11T16:20:04.641Z,92.13
2024-01-11T16:22:33.589Z,92.80
2024-01-11T16:25:02.029Z,94.10
2024-01-11T16:27:32.040Z,93.38
2024-01-11T16:30:03.059Z,95.26
2024-01-11T16:32:36.468Z,94.10
2024-01-11T16:35:06.065Z,94.16
2024-01-11T16:37:34.443Z,93.08
2024-01-11T16:40:02.404Z,93.17
2024-01-11T16:42:31.574Z,92.83
2024-01-11T16:45:00.065Z,94.46
2024-01-11T16:47:28.205Z,92.44
2024-01-11T16:49:58.197Z,93.39
2024-01-11T16:52:26.774Z,94.69
2024-01-11T16:54:54.779Z,92.79
2024-01-11T16:57:24.148Z,92.48
2024-01-11T16:59:52.863Z,92.22
2024-01-11T17:02:29.781Z,91.92
2024-01-11T17:04:59.620Z,91.76
2024-01-11T17:07:27.628Z,90.52
2024-01-11T17:09:55.808Z,90.83
2024-01-11T17:12:24.205Z,90.36
2024-01-11T17:14:57.889Z,90.41
2024-01-11T17:17:26.754Z,90.81
2024-01-11T17:19:54.786Z,90.92
2024-01-11T17:22:23.368Z,91.33
2024-01-11T17:24:52.010Z,92.48
2024-01-11T17:27:20.004Z,93.90
2024-01-11T17:29:48.011Z,93.58
2024-01-11T17:32:16.488Z,94.46
2024-01-11T17:34:46.004Z,95.66
2024-01-11T17:37:13.988Z,96.16
2024-01-11T17:39:45.091Z,96.41
2024-01-11T17:42:13.131Z,98.83
2024-01-11T17:44:41.113Z,97.42
2024-01-11T17:47:09.554Z,95.91
2024-01-11T17:49:43.259Z,95.37
2024-01-11T17:52:12.000Z,94.53
2024-01-11T17:54:41.179Z,93.25
2024-01-11T17:57:09.201Z,91.52
2024-01-11T17:59:37.526Z,88.28
2024-01-11T18:02:05.728Z,89.20
2024-01-11T18:04:34.321Z,89.13
2024-01-11T18:07:23.078Z,86.41
2024-01-11T18:09:55.279Z,86.24
2024-01-11T18:12:23.380Z,81.49
2024-01-11T18:14:52.074Z,79.15
2024-01-11T18:17:20.559Z,78.45
2024-01-11T18:22:37.477Z,79.55
2024-01-11T18:25:06.150Z,80.32
2024-01-11T18:27:34.410Z,80.89
2024-01-11T18:30:03.231Z,80.13
2024-01-11T18:32:34.537Z,80.11
2024-01-11T18:35:10.661Z,80.15
2024-01-11T18:37:40.216Z,80.73
2024-01-11T18:40:12.091Z,79.86
2024-01-11T18:42:40.654Z,79.43
2024-01-11T18:45:09.659Z,79.94
2024-01-11T18:47:39.503Z,81.75
2024-01-11T18:50:08.494Z,81.67
2024-01-11T18:52:40.124Z,82.81
2024-01-11T18:55:16.379Z,83.00
2024-01-11T18:57:47.246Z,84.31
2024-01-11T19:00:15.624Z,83.94
2024-01-11T19:02:45.372Z,84.15
2024-01-11T19:05:15.333Z,85.02
2024-01-11T19:07:45.001Z,85.21
2024-01-11T19:10:14.818Z,85.33
2024-01-11T19:12:42.806Z,85.10
2024-01-11T19:15:11.076Z,84.58
2024-01-11T19:17:39.705Z,84.63
2024-01-11T19:20:08.329Z,85.60
2024-01-11T19:22:36.463Z,85.08
2024-01-11T19:25:06.229Z,86.16
2024-01-11T19:27:35.017Z,85.86
2024-01-11T19:30:05.347Z,86.37
2024-01-11T19:32:33.877Z,86.74
2024-01-11T19:35:01.973Z,87.02
2024-01-11T19:37:31.080Z,87.68
2024-01-11T19:39:59.796Z,87.16
2024-01-11T19:42:27.715Z,87.22
2024-01-11T19:44:56.071Z,86.41
2024-01-11T19:47:24.450Z,86.30
2024-01-11T19:49:53.334Z,86.65
2024-01-11T19:52:21.207Z,88.56
2024-01-11T19:54:49.606Z,86.85
2024-01-11T19:57:17.510Z,86.64
2024-01-11T19:59:45.506Z,86.68
2024-01-11T20:02:13.935Z,87.10
2024-01-11T20:04:42.769Z,87.76
2024-01-11T20:07:10.815Z,87.49
2024-01-11T20:09:38.934Z,86.84
2024-01-11T20:12:07.628Z,86.45
2024-01-11T20:14:35.857Z,87.70
2024-01-11T20:17:04.421Z,86.93
2024-01-11T20:19:32.801Z,87.80
2024-01-11T20:22:00.903Z,87.71
2024-01-11T20:24:28.758Z,88.02
2024-01-11T20:26:57.105Z,87.65
2024-01-11T20:29:27.765Z,88.61
2024-01-11T20:31:56.495Z,89.26
2024-01-11T20:34:24.554Z,88.46
2024-01-11T20:36:52.714Z,87.75
2024-01-11T20:39:21.211Z,88.05
2024-01-11T20:41:49.313Z,88.54
2024-01-11T20:44:18.743Z,87.79
2024-01-11T20:46:48.268Z,88.76
2024-01-11T20:49:16.352Z,88.62
2024-01-11T20:51:44.620Z,89.19
2024-01-11T20:54:17.908Z,88.34
2024-01-11T20:56:45.968Z,88.93
2024-01-11T20:59:14.394Z,88.26
2024-01-11T21:01:43.181Z,88.78
2024-01-11T21:04:11.479Z,88.25
2024-01-11T21:06:40.131Z,89.92
2024-01-11T21:09:08.429Z,89.10
2024-01-11T21:11:36.621Z,89.33
2024-01-11T21:14:05.158Z,90.93
2024-01-11T21:16:33.286Z,91.70
2024-01-11T21:19:04.531Z,88.66
2024-01-11T21:21:33.464Z,90.36
2024-01-11T21:24:02.792Z,89.63
2024-01-11T21:26:31.073Z,90.42
2024-01-11T21:29:02.947Z,89.13
2024-01-11T21:31:34.697Z,89.11
2024-01-11T21:34:05.291Z,88.15
2024-01-11T21:36:37.608Z,87.08
2024-01-11T21:39:06.143Z,87.23
2024-01-11T21:41:34.238Z,87.16
2024-01-11T21:44:02.189Z,87.89
2024-01-11T21:46:30.530Z,88.58
2024-01-11T21:48:59.921Z,87.41
2024-01-11T21:51:28.047Z,87.80
2024-01-11T21:53:59.514Z,89.03
2024-01-11T21:56:28.148Z,88.19
2024-01-11T21:58:56.595Z,90.54
2024-01-11T22:01:24.746Z,89.56
2024-01-11T22:03:58.417Z,87.69
2024-01-11T22:06:27.105Z,85.80
2024-01-11T22:08:59.975Z,84.48
2024-01-11T22:11:30.885Z,85.27
2024-01-11T22:13:59.504Z,84.86
2024-01-11T22:16:27.579Z,83.63
2024-01-11T22:18:56.810Z,82.89
2024-01-11T22:21:29.214Z,83.19
2024-01-11T22:23:57.815Z,82.90
2024-01-11T22:26:30.460Z,81.96
2024-01-11T22:29:07.626Z,81.81
2024-01-11T22:31:36.966Z,81.20
2024-01-11T22:34:05.099Z,81.81
2024-01-11T22:36:33.535Z,82.77
2024-01-11T22:39:02.010Z,82.82
2024-01-11T22:41:31.284Z,83.65
2024-01-11T22:44:00.498Z,83.99
2024-01-11T22:46:28.906Z,84.50
2024-01-11T22:48:56.958Z,84.91
2024-01-11T22:51:24.925Z,85.05
2024-01-11T22:53:53.339Z,84.43
2024-01-11T22:56:21.175Z,83.47
2024-01-11T22:58:49.238Z,81.18
2024-01-11T23:01:17.569Z,80.93
2024-01-11T23:03:45.658Z,80.96
2024-01-11T23:06:13.775Z,81.53
2024-01-11T23:08:42.434Z,82.53
2024-01-11T23:11:10.486Z,82.11
2024-01-11T23:13:39.077Z,83.06
2024-01-11T23:16:07.427Z,82.14
2024-01-11T23:18:36.959Z,80.91
2024-01-11T23:21:05.312Z,80.16
2024-01-11T23:23:33.952Z,79.32
2024-01-11T23:26:01.959Z,79.76
2024-01-11T23:28:29.916Z,78.48
2024-01-11T23:30:58.330Z,79.32
2024-01-11T23:33:26.610Z,79.55
2024-01-11T23:35:55.079Z,79.40
2024-01-11T23:38:23.510Z,79.39
2024-01-11T23:40:51.995Z,80.90
2024-01-11T23:43:20.055Z,79.80
2024-01-11T23:45:51.809Z,80.95
2024-01-11T23:48:19.969Z,80.57
2024-01-11T23:50:48.598Z,80.33
2024-01-11T23:53:17.621Z,80.14
2024-01-11T23:55:46.405Z,83.94
2024-01-11T23:58:14.819Z,80.98
